createdAt,value
2018-02-22T00:00:42.725Z,55.05
2018-02-22T00:03:22.356Z,47.58
2018-02-22T00:06:01.253Z,46.90
2018-02-22T00:08:42.286Z,52.88
2018-02-22T00:11:17.064Z,52.97
2018-02-22T00:13:59.977Z,57.85
2018-02-22T00:16:38.524Z,62.25
2018-02-22T00:19:17.227Z,52.05
2018-02-22T00:21:57.906Z,56.20
2018-02-22T00:24:40.351Z,53.25
2018-02-22T00:27:20.602Z,49.92
2018-02-22T00:29:59.649Z,56.17
2018-02-22T00:32:37.548Z,46.97
2018-02-22T00:35:17.807Z,52.85
2018-02-22T00:37:56.633Z,48.70
2018-02-22T00:40:32.212Z,55.58
2018-02-22T00:43:09.362Z,49.15
2018-02-22T00:45:48.357Z,50.25
2018-02-22T00:48:28.238Z,54.92
2018-02-22T00:51:04.478Z,50.35
2018-02-22T00:53:37.890Z,51.72
2018-02-22T00:56:13.334Z,56.55
2018-02-22T00:58:52.436Z,49.80
2018-02-22T01:01:30.912Z,51.08
2018-02-22T01:04:08.924Z,47.42
2018-02-22T01:06:48.358Z,55.03
2018-02-22T01:09:27.166Z,58.20
2018-02-22T01:12:07.325Z,51.55
2018-02-22T01:14:46.674Z,54.05
2018-02-22T01:17:26.024Z,53.70
2018-02-22T01:20:04.972Z,43.05
2018-02-22T01:22:44.508Z,53.20
2018-02-22T01:25:23.021Z,53.22
2018-02-22T01:28:01.231Z,50.55
2018-02-22T01:30:41.953Z,54.75
2018-02-22T01:33:21.568Z,48.35
2018-02-22T01:36:01.869Z,51.35
2018-02-22T01:38:42.539Z,57.67
2018-02-22T01:41:24.739Z,55.47
2018-02-22T01:44:08.241Z,56.03
2018-02-22T01:46:49.373Z,52.60
2018-02-22T01:49:29.112Z,51.78
2018-02-22T01:52:07.399Z,52.78
2018-02-22T01:54:40.936Z,46.95
2018-02-22T01:57:20.471Z,54.30
2018-02-22T01:59:59.275Z,48.70
2018-02-22T02:02:34.390Z,50.10
2018-02-22T02:05:13.497Z,47.17
2018-02-22T02:07:54.948Z,50.35
2018-02-22T02:10:34.376Z,54.40
2018-02-22T02:13:13.656Z,55.28
2018-02-22T02:15:52.483Z,52.88
2018-02-22T02:18:33.222Z,41.53
2018-02-22T02:21:10.782Z,57.03
2018-02-22T02:23:48.022Z,59.78
2018-02-22T02:26:27.258Z,57.03
2018-02-22T02:29:05.275Z,50.78
2018-02-22T02:31:45.916Z,48.60
2018-02-22T02:34:25.181Z,55.53
2018-02-22T02:37:03.271Z,57.20
2018-02-22T02:39:43.251Z,57.88
2018-02-22T02:42:21.633Z,48.85
2018-02-22T02:44:57.615Z,51.95
2018-02-22T02:47:36.382Z,52.22
2018-02-22T02:50:15.429Z,45.17
2018-02-22T02:52:58.616Z,47.90
2018-02-22T02:55:39.066Z,43.97
2018-02-22T02:58:18.123Z,44.10
2018-02-22T03:00:57.812Z,49.08
2018-02-22T03:03:37.029Z,49.10
2018-02-22T03:06:15.918Z,50.35
2018-02-22T03:08:53.681Z,44.13
2018-02-22T03:11:31.465Z,45.88
2018-02-22T03:14:11.244Z,50.38
2018-02-22T03:16:49.628Z,57.67
2018-02-22T03:19:29.498Z,51.75
2018-02-22T03:22:08.512Z,51.75
2018-02-22T03:24:48.218Z,53.13
2018-02-22T03:27:27.026Z,49.88
2018-02-22T03:30:05.585Z,46.45
2018-02-22T03:32:38.204Z,46.92
2018-02-22T03:35:16.712Z,47.92
2018-02-22T03:37:54.202Z,45.00
2018-02-22T03:40:32.091Z,50.42
2018-02-22T03:43:11.522Z,55.30
2018-02-22T03:45:44.713Z,52.90
2018-02-22T03:48:24.867Z,45.88
2018-02-22T03:50:59.003Z,50.20
2018-02-22T03:53:37.378Z,52.08
2018-02-22T03:56:19.420Z,43.67
2018-02-22T03:58:58.321Z,72.57
2018-02-22T04:01:39.728Z,48.03
2018-02-22T04:04:17.916Z,43.65
2018-02-22T04:06:56.024Z,47.17
2018-02-22T04:09:37.697Z,54.45
2018-02-22T04:12:17.295Z,53.03
2018-02-22T04:14:55.612Z,43.35
2018-02-22T04:17:36.515Z,47.92
2018-02-22T04:20:14.468Z,49.10
2018-02-22T04:22:54.934Z,46.58
2018-02-22T04:25:34.120Z,47.90
2018-02-22T04:28:12.994Z,56.58
2018-02-22T04:30:51.994Z,48.20
2018-02-22T04:33:31.454Z,49.53
2018-02-22T04:36:10.770Z,48.65
2018-02-22T04:38:49.881Z,47.83
2018-02-22T04:41:27.237Z,49.60
2018-02-22T04:44:06.133Z,48.30
2018-02-22T04:46:46.485Z,52.13
2018-02-22T04:49:25.593Z,57.55
2018-02-22T04:52:04.724Z,47.47
2018-02-22T04:54:44.061Z,49.67
2018-02-22T04:57:21.147Z,51.70
2018-02-22T04:59:54.670Z,50.65
2018-02-22T05:02:27.283Z,53.03
2018-02-22T05:05:06.857Z,54.80
2018-02-22T05:07:46.789Z,52.30
2018-02-22T05:10:20.735Z,48.60
2018-02-22T05:12:59.022Z,48.38
2018-02-22T05:15:37.625Z,48.95
2018-02-22T05:18:14.826Z,47.33
2018-02-22T05:20:53.719Z,39.50
2018-02-22T05:23:30.887Z,44.95
2018-02-22T05:26:10.185Z,43.53
2018-02-22T05:28:47.104Z,45.85
2018-02-22T05:31:28.744Z,53.50
2018-02-22T05:34:11.036Z,44.67
2018-02-22T05:36:51.890Z,50.58
2018-02-22T05:39:31.717Z,45.60
2018-02-22T05:42:10.979Z,41.83
2018-02-22T05:44:48.310Z,42.38
2018-02-22T05:47:28.695Z,46.05
2018-02-22T05:50:08.923Z,45.53
2018-02-22T05:52:46.816Z,58.78
2018-02-22T05:55:23.618Z,44.65
2018-02-22T05:58:00.999Z,44.70
2018-02-22T06:00:38.116Z,46.60
2018-02-22T06:03:16.589Z,46.90
2018-02-22T06:05:56.874Z,43.25
2018-02-22T06:08:29.888Z,44.22
2018-02-22T06:11:06.974Z,42.13
2018-02-22T06:13:40.594Z,54.08
2018-02-22T06:16:20.040Z,47.78
2018-02-22T06:18:55.239Z,38.97
2018-02-22T06:21:29.381Z,53.65
2018-02-22T06:24:08.715Z,45.15
2018-02-22T06:26:48.231Z,43.83
2018-02-22T06:29:27.128Z,46.95
2018-02-22T06:32:06.988Z,50.95
2018-02-22T06:34:40.725Z,43.40
2018-02-22T06:37:15.869Z,42.72
2018-02-22T06:39:53.535Z,48.38
2018-02-22T06:42:31.979Z,49.25
2018-02-22T06:45:11.481Z,40.28
2018-02-22T06:47:48.839Z,40.05
2018-02-22T06:50:27.963Z,51.20
2018-02-22T06:53:06.524Z,41.60
2018-02-22T06:55:46.599Z,44.92
2018-02-22T06:58:19.596Z,41.13
2018-02-22T07:00:57.603Z,47.08
2018-02-22T07:03:36.523Z,50.55
2018-02-22T07:06:09.097Z,38.90
2018-02-22T07:08:47.827Z,53.05
2018-02-22T07:11:21.056Z,45.17
2018-02-22T07:14:00.158Z,42.78
2018-02-22T07:16:38.975Z,49.80
2018-02-22T07:19:15.935Z,37.28
2018-02-22T07:21:56.050Z,45.42
2018-02-22T07:24:35.248Z,41.65
2018-02-22T07:27:13.563Z,43.30
2018-02-22T07:29:52.624Z,44.58
2018-02-22T07:32:35.038Z,42.75
2018-02-22T07:35:16.137Z,43.10
2018-02-22T07:37:54.556Z,40.45
2018-02-22T07:40:34.551Z,44.00
2018-02-22T07:43:12.970Z,44.75
2018-02-22T07:45:47.571Z,40.17
2018-02-22T07:48:28.282Z,44.13
2018-02-22T07:51:06.767Z,35.40
2018-02-22T07:53:47.669Z,46.45
2018-02-22T07:56:23.026Z,40.17
2018-02-22T07:59:01.300Z,41.88
2018-02-22T08:01:39.682Z,41.22
2018-02-22T08:04:22.310Z,38.35
2018-02-22T08:07:02.643Z,41.23
2018-02-22T08:09:43.517Z,39.45
2018-02-22T08:12:20.902Z,46.25
2018-02-22T08:15:03.964Z,39.72
2018-02-22T08:17:44.824Z,33.70
2018-02-22T08:20:20.714Z,40.83
2018-02-22T08:23:04.201Z,39.00
2018-02-22T08:25:44.364Z,33.95
2018-02-22T08:28:24.696Z,37.47
2018-02-22T08:31:03.060Z,32.55
2018-02-22T08:33:40.734Z,35.90
2018-02-22T08:36:23.617Z,32.47
2018-02-22T08:39:05.928Z,35.40
2018-02-22T08:41:49.016Z,35.53
2018-02-22T08:44:22.797Z,36.45
2018-02-22T08:46:58.665Z,35.03
2018-02-22T08:49:38.071Z,37.47
2018-02-22T08:52:15.696Z,35.00
2018-02-22T08:54:50.996Z,28.95
2018-02-22T08:57:32.674Z,31.90
2018-02-22T09:00:15.724Z,27.83
2018-02-22T09:02:53.190Z,30.00
2018-02-22T09:05:35.476Z,33.90
2018-02-22T09:08:17.942Z,30.83
2018-02-22T09:10:57.877Z,31.67
2018-02-22T09:13:40.960Z,34.10
2018-02-22T09:16:24.879Z,30.58
2018-02-22T09:19:09.094Z,33.42
2018-02-22T09:21:49.528Z,30.25
2018-02-22T09:24:32.695Z,28.12
2018-02-22T09:27:10.585Z,29.65
2018-02-22T09:29:47.755Z,37.17
2018-02-22T09:32:28.336Z,28.27
2018-02-22T09:35:11.064Z,28.27
2018-02-22T09:37:52.417Z,26.40
2018-02-22T09:40:30.191Z,27.73
2018-02-22T09:43:09.238Z,27.02
2018-02-22T09:45:48.127Z,27.23
2018-02-22T09:48:26.625Z,26.15
2018-02-22T09:51:06.133Z,28.45
2018-02-22T09:53:49.823Z,27.35
2018-02-22T09:56:31.953Z,26.50
2018-02-22T09:59:09.288Z,30.30
2018-02-22T10:01:48.815Z,30.30
2018-02-22T10:04:29.120Z,26.60
2018-02-22T10:07:06.077Z,29.25
2018-02-22T10:09:46.220Z,24.17
2018-02-22T10:12:27.717Z,23.38
2018-02-22T10:15:09.167Z,20.92
2018-02-22T10:17:47.861Z,23.40
2018-02-22T10:20:26.631Z,28.35
2018-02-22T10:23:07.704Z,25.12
2018-02-22T10:25:52.053Z,22.15
2018-02-22T10:28:34.233Z,27.50
2018-02-22T10:31:14.461Z,25.58
2018-02-22T10:34:00.095Z,27.90
2018-02-22T10:36:33.507Z,27.90
2018-02-22T10:39:24.432Z,23.87
2018-02-22T10:42:04.244Z,24.45
2018-02-22T10:44:43.624Z,28.55
2018-02-22T10:47:23.045Z,29.05
2018-02-22T10:50:01.754Z,22.62
2018-02-22T10:52:35.818Z,28.20
2018-02-22T10:55:14.405Z,24.00
2018-02-22T10:57:54.746Z,25.77
2018-02-22T11:00:36.877Z,25.98
2018-02-22T11:03:10.215Z,24.10
2018-02-22T11:05:47.808Z,25.90
2018-02-22T11:08:31.476Z,23.80
2018-02-22T11:11:08.892Z,24.92
2018-02-22T11:13:46.467Z,21.12
2018-02-22T11:16:27.890Z,27.35
2018-02-22T11:19:01.732Z,23.27
2018-02-22T11:21:41.320Z,25.70
2018-02-22T11:24:20.152Z,22.02
2018-02-22T11:26:57.901Z,23.95
2018-02-22T11:29:35.572Z,24.23
2018-02-22T11:32:17.003Z,22.85
2018-02-22T11:34:55.572Z,17.62
2018-02-22T11:37:38.188Z,21.80
2018-02-22T11:40:20.137Z,22.27
2018-02-22T11:43:02.295Z,21.05
2018-02-22T11:45:37.729Z,20.45
2018-02-22T11:48:14.821Z,17.95
2018-02-22T11:50:56.076Z,18.90
2018-02-22T11:53:37.652Z,14.87
2018-02-22T11:56:17.378Z,17.80
2018-02-22T11:59:00.511Z,18.25
2018-02-22T12:01:40.229Z,20.48
2018-02-22T12:04:19.375Z,17.95
2018-02-22T12:06:57.502Z,17.42
2018-02-22T12:09:39.785Z,24.55
2018-02-22T12:12:15.948Z,17.45
2018-02-22T12:14:54.067Z,20.23
2018-02-22T12:17:34.414Z,16.77
2018-02-22T12:20:11.468Z,16.62
2018-02-22T12:22:46.348Z,17.92
2018-02-22T12:25:27.559Z,18.42
2018-02-22T12:28:06.282Z,13.68
2018-02-22T12:30:46.377Z,13.88
2018-02-22T12:33:27.374Z,13.07
2018-02-22T12:36:12.841Z,12.75
2018-02-22T12:38:54.572Z,13.88
2018-02-22T12:41:36.736Z,14.93
2018-02-22T12:44:19.483Z,18.65
2018-02-22T12:46:58.539Z,15.38
2018-02-22T12:49:34.874Z,16.33
2018-02-22T12:52:10.682Z,15.38
2018-02-22T12:54:53.103Z,13.90
2018-02-22T12:57:36.679Z,17.55
2018-02-22T13:00:21.186Z,20.48
2018-02-22T13:03:03.061Z,13.85
2018-02-22T13:05:46.053Z,11.15
2018-02-22T13:08:26.897Z,15.93
2018-02-22T13:11:00.936Z,17.73
2018-02-22T13:13:35.371Z,15.02
2018-02-22T13:16:15.361Z,15.65
2018-02-22T13:19:01.095Z,15.40
2018-02-22T13:21:45.856Z,17.62
2018-02-22T13:24:27.728Z,12.57
2018-02-22T13:27:12.725Z,14.73
2018-02-22T13:29:57.547Z,15.02
2018-02-22T13:32:41.438Z,13.98
2018-02-22T13:35:15.972Z,12.80
2018-02-22T13:38:00.941Z,15.85
2018-02-22T13:40:43.505Z,14.30
2018-02-22T13:43:27.995Z,14.73
2018-02-22T13:46:11.641Z,16.63
2018-02-22T13:49:00.663Z,16.77
2018-02-22T13:51:46.476Z,15.40
2018-02-22T13:54:31.513Z,13.57
2018-02-22T13:57:20.063Z,18.42
2018-02-22T14:00:01.052Z,14.48
2018-02-22T14:02:35.566Z,13.27
2018-02-22T14:05:13.371Z,15.32
2018-02-22T14:07:50.767Z,15.30
2018-02-22T14:10:24.985Z,13.98
2018-02-22T14:13:05.634Z,18.58
2018-02-22T14:15:48.895Z,14.43
2018-02-22T14:18:31.447Z,21.00
2018-02-22T14:21:10.177Z,18.50
2018-02-22T14:23:46.747Z,17.60
2018-02-22T14:26:25.369Z,13.10
2018-02-22T14:29:07.677Z,14.20
2018-02-22T14:31:41.519Z,15.68
2018-02-22T14:34:21.711Z,15.18
2018-02-22T14:37:03.642Z,14.32
2018-02-22T14:39:41.213Z,15.68
2018-02-22T14:42:22.587Z,17.02
2018-02-22T14:45:00.016Z,14.75
2018-02-22T14:47:45.197Z,17.02
2018-02-22T14:50:25.759Z,20.27
2018-02-22T14:53:00.266Z,14.05
2018-02-22T14:55:40.469Z,11.95
2018-02-22T14:58:20.070Z,17.75
2018-02-22T15:01:02.865Z,10.35
2018-02-22T15:03:42.772Z,13.85
2018-02-22T15:06:17.912Z,12.23
2018-02-22T15:08:59.500Z,14.87
2018-02-22T15:11:42.404Z,14.27
2018-02-22T15:14:16.651Z,13.68
2018-02-22T15:16:55.908Z,12.45
2018-02-22T15:19:38.469Z,13.23
2018-02-22T15:22:22.324Z,12.75
2018-02-22T15:24:57.863Z,14.07
2018-02-22T15:27:40.632Z,12.88
2018-02-22T15:30:25.505Z,16.67
2018-02-22T15:33:10.206Z,16.90
2018-02-22T15:35:46.675Z,14.85
2018-02-22T15:38:25.311Z,16.75
2018-02-22T15:41:04.295Z,16.70
2018-02-22T15:43:45.574Z,17.62
2018-02-22T15:46:21.522Z,14.65
2018-02-22T15:49:01.580Z,14.77
2018-02-22T15:51:42.715Z,12.20
2018-02-22T15:54:21.508Z,16.05
2018-02-22T15:57:05.967Z,19.50
2018-02-22T15:59:50.098Z,17.30
2018-02-22T16:02:34.590Z,15.07
2018-02-22T16:05:20.415Z,16.30
2018-02-22T16:08:03.393Z,19.80
2018-02-22T16:10:42.069Z,18.95
2018-02-22T16:13:24.386Z,15.25
2018-02-22T16:16:01.491Z,17.98
2018-02-22T16:18:40.320Z,20.48
2018-02-22T16:21:18.672Z,16.08
2018-02-22T16:23:55.569Z,17.50
2018-02-22T16:26:37.886Z,18.48
2018-02-22T16:29:12.570Z,21.85
2018-02-22T16:31:48.947Z,17.20
2018-02-22T16:34:34.091Z,19.30
2018-02-22T16:37:14.633Z,19.08
2018-02-22T16:39:56.156Z,17.62
2018-02-22T16:42:38.312Z,16.15
2018-02-22T16:45:13.910Z,19.73
2018-02-22T16:47:51.412Z,18.10
2018-02-22T16:50:34.735Z,19.35
2018-02-22T16:53:17.960Z,17.95
2018-02-22T16:56:03.435Z,18.15
2018-02-22T16:58:45.650Z,17.50
2018-02-22T17:01:27.777Z,19.33
2018-02-22T17:04:11.339Z,21.95
2018-02-22T17:06:51.199Z,19.98
2018-02-22T17:09:29.593Z,21.65
2018-02-22T17:12:09.792Z,22.62
2018-02-22T17:14:54.478Z,22.55
2018-02-22T17:17:41.221Z,16.85
2018-02-22T17:20:15.221Z,16.67
2018-02-22T17:22:55.653Z,23.25
2018-02-22T17:25:36.088Z,18.87
2018-02-22T17:28:13.174Z,21.30
2018-02-22T17:30:55.187Z,17.42
2018-02-22T17:33:39.275Z,23.92
2018-02-22T17:36:20.851Z,25.10
2018-02-22T17:39:03.337Z,22.30
2018-02-22T17:41:41.078Z,18.65
2018-02-22T17:44:25.527Z,23.05
2018-02-22T17:47:08.040Z,23.00
2018-02-22T17:49:41.971Z,33.20
2018-02-22T17:52:19.609Z,23.40
2018-02-22T17:54:58.916Z,26.45
2018-02-22T17:57:32.886Z,24.30
2018-02-22T18:00:09.143Z,22.25
2018-02-22T18:02:52.077Z,26.60
2018-02-22T18:05:30.752Z,27.08
2018-02-22T18:08:09.396Z,27.92
2018-02-22T18:10:44.791Z,23.92
2018-02-22T18:13:23.667Z,41.60
2018-02-22T18:16:03.196Z,27.02
2018-02-22T18:18:46.609Z,24.98
2018-02-22T18:21:28.262Z,31.92
2018-02-22T18:24:02.946Z,33.92
2018-02-22T18:26:45.539Z,32.47
2018-02-22T18:29:25.959Z,30.65
2018-02-22T18:32:07.674Z,35.03
2018-02-22T18:34:48.738Z,31.25
2018-02-22T18:37:26.688Z,34.05
2018-02-22T18:40:05.101Z,33.55
2018-02-22T18:42:48.566Z,31.42
2018-02-22T18:45:28.643Z,36.17
2018-02-22T18:48:01.381Z,33.97
2018-02-22T18:50:42.079Z,30.62
2018-02-22T18:53:20.456Z,33.88
2018-02-22T18:56:06.743Z,32.45
2018-02-22T18:58:46.005Z,34.80
2018-02-22T19:01:25.878Z,36.42
2018-02-22T19:04:07.930Z,35.58
2018-02-22T19:06:47.342Z,29.10
2018-02-22T19:09:25.185Z,33.67
2018-02-22T19:12:03.684Z,31.75
2018-02-22T19:14:46.571Z,41.03
2018-02-22T19:17:29.118Z,31.60
2018-02-22T19:20:03.808Z,34.53
2018-02-22T19:22:43.030Z,39.15
2018-02-22T19:25:22.248Z,33.72
2018-02-22T19:28:04.939Z,30.98
2018-02-22T19:30:48.496Z,32.83
2018-02-22T19:33:26.328Z,34.15
2018-02-22T19:36:07.900Z,35.47
2018-02-22T19:38:46.474Z,30.62
2018-02-22T19:41:28.239Z,30.88
2018-02-22T19:44:03.294Z,29.27
2018-02-22T19:46:43.664Z,32.85
2018-02-22T19:49:21.649Z,30.52
2018-02-22T19:51:58.258Z,35.58
2018-02-22T19:54:38.100Z,32.90
2018-02-22T19:57:15.820Z,28.70
2018-02-22T19:59:49.989Z,32.15
2018-02-22T20:02:31.128Z,36.53
2018-02-22T20:05:10.873Z,32.45
2018-02-22T20:07:51.261Z,31.62
2018-02-22T20:10:31.776Z,29.15
2018-02-22T20:13:11.481Z,33.65
2018-02-22T20:15:54.714Z,35.38
2018-02-22T20:18:28.936Z,27.83
2018-02-22T20:21:10.165Z,30.75
2018-02-22T20:23:45.495Z,33.67
2018-02-22T20:26:23.732Z,31.50
2018-02-22T20:29:09.221Z,30.48
2018-02-22T20:31:50.651Z,37.83
2018-02-22T20:34:26.940Z,30.23
2018-02-22T20:37:05.390Z,29.67
2018-02-22T20:39:46.773Z,28.65
2018-02-22T20:42:26.577Z,32.78
2018-02-22T20:45:05.326Z,32.88
2018-02-22T20:47:44.378Z,31.23
2018-02-22T20:50:22.412Z,29.67
2018-02-22T20:53:04.846Z,32.65
2018-02-22T20:55:47.109Z,28.27
2018-02-22T20:58:28.856Z,29.95
2018-02-22T21:01:09.011Z,34.25
2018-02-22T21:03:44.867Z,27.90
2018-02-22T21:06:27.231Z,29.50
2018-02-22T21:09:10.220Z,33.95
2018-02-22T21:11:47.783Z,32.72
2018-02-22T21:14:25.539Z,27.60
2018-02-22T21:17:05.207Z,26.23
2018-02-22T21:19:43.484Z,29.83
2018-02-22T21:22:20.016Z,30.27
2018-02-22T21:24:53.662Z,27.35
2018-02-22T21:27:33.078Z,26.40
2018-02-22T21:30:16.667Z,23.38
2018-02-22T21:32:58.046Z,26.10
2018-02-22T21:35:36.844Z,25.27
2018-02-22T21:38:17.937Z,29.75
2018-02-22T21:40:59.540Z,26.52
2018-02-22T21:43:41.743Z,25.58
2018-02-22T21:46:19.804Z,25.40
2018-02-22T21:48:58.998Z,28.40
2018-02-22T21:51:38.029Z,26.27
2018-02-22T21:54:18.467Z,30.08
2018-02-22T21:56:58.051Z,23.60
2018-02-22T21:59:32.136Z,24.63
2018-02-22T22:02:11.688Z,28.48
2018-02-22T22:04:52.261Z,25.08
2018-02-22T22:07:31.363Z,26.73
2018-02-22T22:10:11.819Z,26.92
2018-02-22T22:12:49.418Z,31.70
2018-02-22T22:15:28.353Z,26.02
2018-02-22T22:18:08.477Z,27.33
2018-02-22T22:20:45.818Z,26.17
2018-02-22T22:23:24.738Z,27.83
2018-02-22T22:26:09.108Z,27.75
2018-02-22T22:28:52.287Z,30.65
2018-02-22T22:31:25.844Z,25.20
2018-02-22T22:34:05.654Z,24.12
2018-02-22T22:36:44.833Z,27.62
2018-02-22T22:39:23.003Z,26.35
2018-02-22T22:41:56.716Z,29.48
2018-02-22T22:44:37.268Z,26.48
2018-02-22T22:47:19.027Z,28.55
2018-02-22T22:49:59.872Z,26.45
2018-02-22T22:52:42.253Z,22.17
2018-02-22T22:55:21.696Z,25.95
2018-02-22T22:58:00.094Z,32.60
2018-02-22T23:00:38.056Z,26.35
2018-02-22T23:03:23.436Z,26.42
2018-02-22T23:06:09.554Z,29.00
2018-02-22T23:08:51.998Z,27.70
2018-02-22T23:11:34.396Z,27.60
2018-02-22T23:14:15.590Z,25.48
2018-02-22T23:16:56.823Z,30.17
2018-02-22T23:19:40.458Z,25.52
2018-02-22T23:22:23.158Z,24.58
2018-02-22T23:24:58.775Z,27.40
2018-02-22T23:30:27.786Z,27.33
2018-02-22T23:33:07.052Z,27.58
2018-02-22T23:35:47.052Z,34.42
2018-02-22T23:38:25.409Z,26.83
2018-02-22T23:41:09.445Z,27.13
2018-02-22T23:43:49.045Z,30.67
2018-02-22T23:46:27.791Z,29.27
2018-02-22T23:49:05.141Z,32.40
2018-02-22T23:51:47.222Z,27.20
2018-02-22T23:54:27.179Z,31.98
2018-02-22T23:57:07.668Z,31.25
2018-02-22T23:59:47.189Z,29.42
